Flight Track Log - Related Links

Times and Time Zones

All times are in EDT time to prevent confusion due to time zone crossing. See the EJA727 flight status page for this flight to view local times or setup timezone preferences in your user account.

Time Position Orientation Groundspeed Altitude Reporting Facility
EDT Latitude Longitude Course Direction KTS MPH feet Rate Location/Type
Mon 06:47:53 PM 26.5069 -80.1578 342° North 287 330 38,000  Level Miami Center
Mon 06:48:53 PM 26.5383 -80.2400 293° West 302 348 10,000 -12,600 Descending Miami Center
Mon 06:49:53 PM 26.5850 -80.3042 309° West 293 337 12,800 3,000 Climbing Miami Center
Mon 06:50:53 PM 26.6864 -80.3442 341° North 324 373 16,000 2,700 Climbing Miami Center
Mon 06:51:53 PM 26.7794 -80.3772 342° North 376 433 18,200 2,250 Climbing Miami Center
Mon 06:52:00 PM 26.8413 -80.4926 342° North  Level FlightAware
Mon 06:52:53 PM 26.8892 -80.4203 341° North 395 455 20,500  Level Miami Center
Mon 06:53:00 PM 26.9417 -80.5302 342° North  Level FlightAware
Mon 06:53:53 PM 26.9986 -80.4631 341° North 408 470 23,000  Level Miami Center
Mon 06:54:53 PM 27.1106 -80.5039 342° North 414 476 25,500 2,300 Climbing Miami Center
Mon 06:55:53 PM 27.2242 -80.5472 341° North 419 482 27,600 1,950 Climbing Miami Center
Mon 06:56:53 PM 27.3400 -80.5931 341° North 419 482 29,400 1,900 Climbing Miami Center
Mon 06:57:53 PM 27.4558 -80.6364 342° North 425 489 31,400 2,250 Climbing Miami Center
Mon 06:58:53 PM 27.5714 -80.6778 342° North 430 495 33,900 2,350 Climbing Miami Center
Mon 06:59:53 PM 27.6831 -80.7214 341° North 430 495 36,100 1,700 Climbing Miami Center
Mon 07:00:53 PM 27.7925 -80.7650 341° North 419 482 37,300 1,400 Climbing Miami Center
Mon 07:01:53 PM 27.9106 -80.8042 344° North 428 493 38,900 850 Climbing Miami Center
Mon 07:02:53 PM 28.0239 -80.8506 340° North 428 493 39,000 50 Climbing Miami Center
Mon 07:03:53 PM 28.1397 -80.8922 342° North 428 493 39,000  Level Miami Center
Mon 07:05:25 PM 28.3128 -80.9617 341° North 387 445 39,000  Level Jacksonville Center
Mon 07:06:24 PM 28.4200 -81.0067 340° North 430 495 39,000  Level Jacksonville Center
Mon 07:07:25 PM 28.5375 -81.0517 341° North 447 514 39,000  Level Jacksonville Center
Mon 07:08:24 PM 28.6569 -81.0969 342° North 452 520 39,000  Level Jacksonville Center
Mon 07:09:25 PM 28.7786 -81.1350 345° North 452 520 39,000  Level Jacksonville Center
Mon 07:10:24 PM 28.9042 -81.1661 348° North 447 514 39,000  Level Jacksonville Center
Mon 07:11:24 PM 29.0278 -81.1947 349° North 447 514 39,000  Level Jacksonville Center
Mon 07:12:24 PM 29.1533 -81.2258 348° North 453 521 39,000 -545 Level Jacksonville Center
Mon 07:13:25 PM 29.2811 -81.2547 349° North 453 521 37,900 -1,289 Descending Jacksonville Center
Mon 07:14:25 PM 29.4067 -81.2858 348° North 453 521 36,400 -1,462 Descending Jacksonville Center
Mon 07:15:24 PM 29.5303 -81.3150 348° North 453 521 35,000 -700 Descending Jacksonville Center
Mon 07:16:25 PM 29.6597 -81.3272 355° North 453 521 35,000 -694 Level Jacksonville Center
Mon 07:17:25 PM 29.7872 -81.3347 357° North 453 521 33,600 -1,000 Descending Jacksonville Center
Mon 07:18:25 PM 29.9167 -81.3422 357° North 459 528 33,000 -300 Descending Jacksonville Center
Mon 07:19:25 PM 30.0483 -81.3519 356° North 464 534 33,000  Level Jacksonville Center
Mon 07:20:25 PM 30.1800 -81.3594 357° North 464 534 33,000  Level Jacksonville Center
Mon 07:21:25 PM 30.3117 -81.3694 356° North 464 534 33,000  Level Jacksonville Center
Mon 07:22:25 PM 30.4414 -81.3794 356° North 464 534 33,000  Level Jacksonville Center
Mon 07:23:24 PM 30.5728 -81.3869 357° North 464 534 33,000  Level Jacksonville Center
Mon 07:24:25 PM 30.7003 -81.3969 356° North 464 534 33,000  Level Jacksonville Center
Mon 07:25:24 PM 30.8300 -81.4072 356° North 464 534 33,000  Level Jacksonville Center
Mon 07:26:25 PM 30.9569 -81.3689 15° North 457 526 33,000  Level Jacksonville Center
Mon 07:27:25 PM 31.0772 -81.3086 23° Northeast 457 526 33,000 -504 Level Jacksonville Center
Mon 07:28:24 PM 31.1997 -81.2531 21° North 464 534 32,000 -1,261 Descending Jacksonville Center
Mon 07:29:24 PM 31.3181 -81.1953 23° Northeast 464 534 30,500 -1,636 Descending Jacksonville Center
Mon 07:30:25 PM 31.4547 -81.1269 23° Northeast 475 547 28,700 -1,600 Descending Jacksonville Center
Mon 07:31:24 PM 31.5792 -81.0683 22° Northeast 475 547 27,300 -1,250 Descending Jacksonville Center
Mon 07:32:25 PM 31.6869 -81.0150 23° Northeast 475 547 26,200 -1,388 Descending Jacksonville Center
Mon 07:33:25 PM 31.8178 -80.9539 22° Northeast 464 534 24,500 -1,109 Descending Jacksonville Center
Mon 07:34:24 PM 31.9214 -80.9050 22° Northeast 446 513 24,000 -908 Descending Jacksonville Center
Mon 07:35:24 PM 32.0456 -80.8411 24° Northeast 446 513 22,700 -1,388 Descending Jacksonville Center
Mon 07:36:25 PM 32.1594 -80.7894 21° North 437 503 21,200 -1,800 Descending Jacksonville Center
Mon 07:37:24 PM 32.2672 -80.7331 24° Northeast 423 487 19,100 -1,966 Descending Jacksonville Center
Mon 07:38:24 PM 32.3706 -80.6839 22° Northeast 405 466 17,300 -1,950 Descending Jacksonville Center
Mon 07:39:24 PM 32.4742 -80.6319 23° Northeast 399 459 15,200 -2,150 Descending Jacksonville Center
Mon 07:40:24 PM 32.5561 -80.5511 40° Northeast 385 443 13,000 -2,083 Descending Jacksonville Center
Mon 07:41:25 PM 32.6189 -80.4458 55° Northeast 379 436 11,000 -1,190 Descending Jacksonville Center
Mon 07:42:25 PM 32.6756 -80.3606 52° Northeast 373 429 10,600 -950 Descending Jacksonville Center
Mon 07:43:25 PM 32.7411 -80.2994 38° Northeast 332 382 9,100 -1,500 Descending Jacksonville Center
Mon 07:44:25 PM 32.8069 -80.2431 36° Northeast 305 351 7,600 -1,500 Descending Jacksonville Center
Mon 07:45:25 PM 32.8703 -80.1892 36° Northeast 289 333 6,100 -1,300 Descending Jacksonville Center
Mon 07:46:25 PM 32.9358 -80.1328 36° Northeast 284 327 5,000 -605 Descending Jacksonville Center
Mon 07:47:24 PM 32.9892 -80.0892 34° Northeast 263 303 4,900 -102 Descending Jacksonville Center
Mon 07:49:00 PM 32.8986 -80.0405 156° South  Level Estimated
Mon 07:56:00 PM 32.8986 -80.0405 121° Southeast  Level Estimated
Mon 07:57:00 PM 32.8986 -80.0405 121° Southeast  Level Estimated
Mon 07:58:00 PM 32.8986 -80.0405 121° Southeast  Level Estimated
Mon 07:59:00 PM 32.8986 -80.0405 121° Southeast  Level Estimated
Mon 08:00:00 PM 32.8986 -80.0405 121° Southeast  Level Estimated
Mon 08:01:00 PM 32.8986 -80.0405 121° Southeast  Level Estimated

Login

Don't have an account? Register now (free) for customized features, flight alerts, and more!